Time;durP1;ratioP1;P1;durP2;ratioP2;P2;SDS_P1;SDS_P2;PMS_P1;PMS_P2;Temp;Humidity;BMP_temperature;BMP_pressure;BME280_temperature;BME280_humidity;BME280_pressure;Samples;Min_cycle;Max_cycle;Signal;HPM_P1;HPM_P2
2023/01/20 00:00:24;;;;;;;9.98;3.35;;;1.50;81.30;;;;;;4972914;28;20115;-81
2023/01/20 00:02:52;;;;;;;5.65;2.03;;;1.50;81.30;;;;;;4969729;28;20469;-81
2023/01/20 00:05:19;;;;;;;11.13;3.93;;;1.50;81.50;;;;;;4956730;28;20054;-81
2023/01/20 00:07:46;;;;;;;4.85;1.48;;;1.50;81.40;;;;;;4972848;28;20334;-81
2023/01/20 00:10:13;;;;;;;3.97;1.40;;;1.50;81.40;;;;;;4956742;28;20461;-81
2023/01/20 00:12:41;;;;;;;3.30;1.20;;;1.40;81.50;;;;;;4972723;28;20059;-81
2023/01/20 00:15:09;;;;;;;4.25;1.20;;;1.40;81.50;;;;;;4966702;28;20066;-81
2023/01/20 00:17:37;;;;;;;4.43;1.07;;;1.40;81.60;;;;;;4953484;28;20051;-81
2023/01/20 00:20:05;;;;;;;3.20;1.00;;;1.40;81.60;;;;;;4961832;28;20345;-81
2023/01/20 00:22:32;;;;;;;6.78;2.58;;;1.40;81.60;;;;;;4972331;28;20071;-81
2023/01/20 00:25:00;;;;;;;8.85;3.40;;;1.40;81.80;;;;;;4971817;28;20056;-81
2023/01/20 00:27:27;;;;;;;10.30;3.90;;;1.40;82.10;;;;;;4970413;28;20109;-81
2023/01/20 00:29:55;;;;;;;7.77;2.93;;;1.40;82.30;;;;;;4991707;28;20077;-81
2023/01/20 00:32:22;;;;;;;6.47;2.70;;;1.40;82.50;;;;;;4990937;28;20385;-81
2023/01/20 00:34:49;;;;;;;8.10;3.50;;;1.40;82.90;;;;;;4988085;28;20086;-81
2023/01/20 00:37:16;;;;;;;7.28;3.60;;;1.40;83.10;;;;;;4956287;28;20790;-81
2023/01/20 00:39:43;;;;;;;8.85;4.30;;;1.40;83.70;;;;;;4959277;28;20089;-81
2023/01/20 00:42:10;;;;;;;9.30;4.27;;;1.40;83.80;;;;;;4974371;28;20620;-81
2023/01/20 00:44:38;;;;;;;8.90;4.40;;;1.40;83.90;;;;;;4972502;28;20386;-81
2023/01/20 00:47:06;;;;;;;8.98;4.28;;;1.40;84.10;;;;;;4972469;28;20050;-81
2023/01/20 00:49:33;;;;;;;11.45;5.60;;;1.40;84.30;;;;;;4976420;28;20516;-81
2023/01/20 00:52:00;;;;;;;12.80;5.35;;;1.40;84.60;;;;;;4975272;28;20783;-81
2023/01/20 00:54:27;;;;;;;12.80;6.30;;;1.40;84.80;;;;;;4981400;28;20134;-81
2023/01/20 00:56:55;;;;;;;11.70;6.13;;;1.40;85.10;;;;;;4972000;28;20790;-81
2023/01/20 00:59:22;;;;;;;12.40;5.55;;;1.40;85.10;;;;;;4972305;28;20086;-81
2023/01/20 01:01:49;;;;;;;14.50;6.68;;;1.40;85.20;;;;;;4971083;28;20078;-81
2023/01/20 01:04:17;;;;;;;11.65;6.05;;;1.40;85.40;;;;;;4958351;28;20104;-81
2023/01/20 01:06:44;;;;;;;13.60;6.60;;;1.40;85.50;;;;;;4991902;28;20046;-81
2023/01/20 01:09:11;;;;;;;11.73;5.53;;;1.40;85.60;;;;;;4975241;28;20250;-81
2023/01/20 01:11:38;;;;;;;12.10;5.35;;;1.40;85.50;;;;;;4962546;28;20050;-81
2023/01/20 01:14:05;;;;;;;13.30;6.28;;;1.40;85.60;;;;;;4955841;28;20046;-81
2023/01/20 01:16:33;;;;;;;13.32;6.20;;;1.40;85.70;;;;;;4971961;28;20058;-81
2023/01/20 01:19:00;;;;;;;6.87;2.50;;;1.40;86.00;;;;;;4971065;28;20133;-81
2023/01/20 01:21:28;;;;;;;11.77;5.15;;;1.40;86.20;;;;;;4971719;28;20354;-81
2023/01/20 01:23:55;;;;;;;12.70;6.05;;;1.40;85.70;;;;;;4989398;28;20055;-81
2023/01/20 01:26:23;;;;;;;11.50;5.05;;;1.40;85.80;;;;;;4975408;28;20137;-81
2023/01/20 01:28:50;;;;;;;12.00;5.32;;;1.40;86.20;;;;;;4988743;28;20133;-81
2023/01/20 01:31:20;;;;;;;8.27;3.37;;;1.40;86.00;;;;;;4971206;28;20063;-80
2023/01/20 01:33:48;;;;;;;9.90;4.57;;;1.40;86.10;;;;;;4971292;28;20365;-81
2023/01/20 01:36:16;;;;;;;12.05;6.28;;;1.40;86.30;;;;;;4970834;28;20057;-81
2023/01/20 01:38:45;;;;;;;10.63;5.28;;;1.40;86.30;;;;;;4971031;28;20091;-81
2023/01/20 01:41:13;;;;;;;11.18;6.22;;;1.40;86.40;;;;;;4972457;28;20117;-82
2023/01/20 01:44:00;;;;;;;9.87;4.77;;;1.40;86.40;;;;;;4973376;28;20053;-80
2023/01/20 01:46:27;;;;;;;8.93;4.40;;;1.40;86.30;;;;;;4958823;28;20334;-81
2023/01/20 01:48:56;;;;;;;11.15;5.35;;;1.40;86.30;;;;;;4955217;28;20151;-81
2023/01/20 01:51:25;;;;;;;11.65;5.25;;;1.40;86.10;;;;;;4974588;28;20133;-81
2023/01/20 01:53:58;;;;;;;9.80;4.85;;;1.40;86.30;;;;;;4973690;28;20078;-81
2023/01/20 01:56:27;;;;;;;11.87;5.00;;;1.40;86.20;;;;;;4974625;28;20046;-81
2023/01/20 01:58:57;;;;;;;11.00;5.30;;;1.40;86.40;;;;;;4977244;28;20262;-81
2023/01/20 02:01:24;;;;;;;10.25;5.63;;;1.40;86.20;;;;;;4982799;28;20836;-81
2023/01/20 02:03:57;;;;;;;11.63;6.00;;;1.40;86.30;;;;;;4997745;28;20113;-82
2023/01/20 02:06:28;;;;;;;11.77;6.28;;;1.40;86.50;;;;;;4994017;28;20087;-81
2023/01/20 02:08:57;;;;;;;13.30;6.77;;;1.40;86.50;;;;;;4993777;28;20158;-81
2023/01/20 02:11:24;;;;;;;11.73;5.50;;;1.40;86.50;;;;;;4974151;28;20247;-81
2023/01/20 02:13:51;;;;;;;14.07;6.05;;;1.40;86.40;;;;;;4990642;28;20182;-82
2023/01/20 02:16:30;;;;;;;15.15;7.32;;;1.40;86.60;;;;;;4991113;28;20061;-81
2023/01/20 02:19:17;;;;;;;13.60;6.22;;;1.40;86.60;;;;;;4974060;28;20043;-80
2023/01/20 02:22:08;;;;;;;14.03;6.40;;;1.40;86.50;;;;;;4974143;28;20118;-81
2023/01/20 02:25:08;;;;;;;13.93;6.38;;;1.40;86.40;;;;;;4973927;28;20275;-81
2023/01/20 02:28:23;;;;;;;16.13;6.20;;;1.30;86.50;;;;;;4958219;28;20058;-81
2023/01/20 02:31:21;;;;;;;17.83;7.53;;;1.30;86.70;;;;;;4974695;28;20115;-81
2023/01/20 02:33:57;;;;;;;16.63;7.50;;;1.40;86.70;;;;;;4973948;28;20094;-81
2023/01/20 02:36:31;;;;;;;15.87;6.60;;;1.30;86.50;;;;;;4958494;28;20205;-81
2023/01/20 02:39:04;;;;;;;16.20;7.40;;;1.20;86.60;;;;;;4964744;28;20259;-81
2023/01/20 02:41:39;;;;;;;15.77;7.20;;;1.20;86.70;;;;;;4973737;28;20158;-81
2023/01/20 02:44:15;;;;;;;17.63;8.20;;;1.30;86.70;;;;;;4973673;28;20162;-81
2023/01/20 02:46:50;;;;;;;17.65;8.57;;;1.20;86.70;;;;;;4957354;28;20591;-81
2023/01/20 02:49:24;;;;;;;18.10;7.70;;;1.30;86.80;;;;;;4973342;28;20158;-81
2023/01/20 02:51:58;;;;;;;20.67;8.50;;;1.30;86.80;;;;;;4980282;28;20345;-80
2023/01/20 02:54:28;;;;;;;17.15;7.45;;;1.20;86.70;;;;;;4972677;28;20053;-81
2023/01/20 02:56:59;;;;;;;20.77;8.27;;;1.20;86.90;;;;;;4978570;28;20517;-81
2023/01/20 02:59:32;;;;;;;17.40;7.32;;;1.20;86.80;;;;;;4972579;28;20646;-81
2023/01/20 03:02:03;;;;;;;17.20;8.00;;;1.20;86.90;;;;;;4973522;28;20061;-81
2023/01/20 03:04:37;;;;;;;19.63;8.25;;;1.20;86.80;;;;;;4974703;28;20338;-81
2023/01/20 03:07:05;;;;;;;18.17;7.05;;;1.20;86.80;;;;;;4978698;28;20628;-81
2023/01/20 03:09:37;;;;;;;18.90;8.10;;;1.20;86.90;;;;;;4971372;28;20055;-81
2023/01/20 03:12:11;;;;;;;18.38;8.05;;;1.20;86.90;;;;;;4971816;28;20823;-81
2023/01/20 03:14:38;;;;;;;17.87;8.13;;;1.20;87.00;;;;;;4971296;28;20891;-81
2023/01/20 03:17:05;;;;;;;20.40;8.05;;;1.20;87.00;;;;;;4964554;28;20290;-81
2023/01/20 03:19:34;;;;;;;16.55;7.28;;;1.10;87.00;;;;;;4953796;28;20058;-81
2023/01/20 03:22:02;;;;;;;19.15;7.22;;;1.10;86.90;;;;;;4963671;28;20138;-80
2023/01/20 03:24:30;;;;;;;16.92;7.10;;;1.10;87.00;;;;;;4957419;28;20130;-81
2023/01/20 03:26:58;;;;;;;16.80;7.17;;;1.10;87.00;;;;;;4972969;28;20055;-81
2023/01/20 03:29:25;;;;;;;19.52;8.23;;;1.10;87.10;;;;;;4973136;28;20255;-81
2023/01/20 03:31:57;;;;;;;18.27;8.02;;;1.10;87.20;;;;;;4972895;28;20062;-81
2023/01/20 03:34:26;;;;;;;16.48;6.80;;;1.10;87.20;;;;;;4990861;28;20051;-81
2023/01/20 03:36:56;;;;;;;19.38;8.20;;;1.10;87.10;;;;;;4973055;28;20170;-81
2023/01/20 03:39:25;;;;;;;17.00;7.77;;;1.10;87.30;;;;;;4974800;28;20488;-81
2023/01/20 03:42:01;;;;;;;18.23;7.30;;;1.10;87.30;;;;;;4973472;28;20366;-81
2023/01/20 03:44:43;;;;;;;16.40;6.75;;;1.10;87.20;;;;;;4973144;28;20146;-81
2023/01/20 03:47:19;;;;;;;17.90;7.40;;;1.10;87.20;;;;;;4973120;28;20142;-81
2023/01/20 03:49:54;;;;;;;16.90;7.28;;;1.10;87.30;;;;;;4982968;28;20046;-80
2023/01/20 03:52:31;;;;;;;18.10;8.10;;;1.10;87.30;;;;;;4973642;28;20574;-82
2023/01/20 03:55:01;;;;;;;18.08;7.65;;;1.10;87.30;;;;;;4972750;28;20370;-81
2023/01/20 03:57:35;;;;;;;17.35;6.82;;;1.10;87.40;;;;;;4972718;28;20101;-81
2023/01/20 04:00:04;;;;;;;18.13;7.18;;;1.10;87.20;;;;;;4967786;28;20973;-81
2023/01/20 04:02:40;;;;;;;14.43;5.70;;;1.10;87.20;;;;;;4992544;28;20061;-80
2023/01/20 04:05:08;;;;;;;12.97;4.63;;;1.10;87.30;;;;;;4979887;28;20161;-80
2023/01/20 04:07:39;;;;;;;13.40;5.47;;;1.10;87.30;;;;;;4972759;28;20799;-81
2023/01/20 04:10:12;;;;;;;15.90;6.35;;;1.10;87.10;;;;;;4984001;28;21005;-81
2023/01/20 04:12:39;;;;;;;16.70;6.72;;;1.10;87.10;;;;;;4992180;28;20237;-81
2023/01/20 04:15:07;;;;;;;15.85;6.20;;;1.10;87.10;;;;;;4986416;28;20134;-81
2023/01/20 04:17:35;;;;;;;15.70;6.57;;;1.10;87.20;;;;;;4989105;28;20067;-80
2023/01/20 04:20:07;;;;;;;16.33;6.15;;;1.10;87.20;;;;;;4978716;28;20432;-81
2023/01/20 04:22:39;;;;;;;16.50;6.90;;;1.10;87.30;;;;;;4956253;28;20055;-81
2023/01/20 04:25:14;;;;;;;15.75;6.53;;;1.10;87.40;;;;;;4985724;28;20050;-81
2023/01/20 04:27:41;;;;;;;17.83;6.80;;;1.10;87.30;;;;;;4991956;28;20141;-81
2023/01/20 04:30:09;;;;;;;19.07;8.23;;;1.10;87.40;;;;;;4978207;28;20051;-81
2023/01/20 04:32:36;;;;;;;16.15;7.10;;;1.10;87.40;;;;;;4980510;28;20289;-81
2023/01/20 04:35:04;;;;;;;18.08;6.63;;;1.10;87.30;;;;;;4999193;28;20625;-80
2023/01/20 04:37:31;;;;;;;18.13;7.15;;;1.10;87.30;;;;;;4989989;28;20074;-80
2023/01/20 04:39:59;;;;;;;15.55;6.22;;;1.10;87.40;;;;;;4980118;28;20836;-80
2023/01/20 04:42:27;;;;;;;20.63;7.97;;;1.10;87.40;;;;;;4972451;28;20113;-81
2023/01/20 04:44:53;;;;;;;21.60;8.43;;;1.20;87.50;;;;;;4972148;28;20403;-81
2023/01/20 04:47:20;;;;;;;20.08;8.95;;;1.10;87.20;;;;;;4972036;28;20496;-80
2023/01/20 04:49:48;;;;;;;18.33;7.25;;;1.20;87.10;;;;;;4971046;28;20154;-80
2023/01/20 04:52:15;;;;;;;17.83;7.45;;;1.20;87.10;;;;;;4971889;28;20130;-80
2023/01/20 04:54:43;;;;;;;18.30;7.60;;;1.10;87.10;;;;;;4984320;28;20141;-80
2023/01/20 04:57:11;;;;;;;18.70;8.13;;;1.10;87.00;;;;;;4988093;28;20344;-80
2023/01/20 04:59:38;;;;;;;15.98;7.03;;;1.10;87.10;;;;;;4979582;28;20182;-81
2023/01/20 05:02:05;;;;;;;16.88;7.47;;;1.10;87.20;;;;;;4956012;28;20246;-80
2023/01/20 05:04:32;;;;;;;18.95;7.72;;;1.10;87.10;;;;;;4955944;28;20547;-80
2023/01/20 05:06:59;;;;;;;19.47;8.60;;;1.10;87.00;;;;;;4977360;28;20137;-81
2023/01/20 05:09:26;;;;;;;19.77;8.77;;;1.10;87.00;;;;;;4965864;28;20393;-80
2023/01/20 05:11:53;;;;;;;19.58;8.25;;;1.10;87.10;;;;;;4972115;28;20059;-81
2023/01/20 05:14:22;;;;;;;17.40;6.13;;;1.10;87.10;;;;;;4989643;28;20053;-80
2023/01/20 05:16:49;;;;;;;18.23;7.47;;;1.10;87.10;;;;;;4971628;28;20160;-81
2023/01/20 05:19:16;;;;;;;17.40;7.60;;;1.10;87.20;;;;;;4965592;28;20051;-81
2023/01/20 05:21:43;;;;;;;17.20;7.47;;;1.10;87.20;;;;;;4994824;28;20349;-81
2023/01/20 05:24:10;;;;;;;16.33;6.13;;;1.10;87.10;;;;;;4984152;28;20043;-81
2023/01/20 05:26:38;;;;;;;17.33;7.05;;;1.10;87.20;;;;;;4962051;28;20528;-80
2023/01/20 05:29:05;;;;;;;17.70;7.90;;;1.00;87.20;;;;;;4984557;28;20821;-81
2023/01/20 05:31:33;;;;;;;16.90;7.30;;;1.10;87.30;;;;;;4994023;28;20081;-81
2023/01/20 05:34:00;;;;;;;18.90;7.85;;;1.10;87.30;;;;;;4994496;28;20257;-80
2023/01/20 05:36:28;;;;;;;18.23;6.75;;;1.10;87.20;;;;;;4982528;28;20050;-80
2023/01/20 05:38:55;;;;;;;20.75;8.30;;;1.10;87.20;;;;;;4979977;28;20058;-80
2023/01/20 05:41:22;;;;;;;17.85;7.78;;;1.10;87.30;;;;;;4985811;28;20055;-80
2023/01/20 05:44:40;;;;;;;19.77;7.60;;;1.10;87.20;;;;;;4975242;28;20053;-80
2023/01/20 05:47:08;;;;;;;20.83;8.73;;;1.10;87.30;;;;;;4973200;28;20360;-80
2023/01/20 05:49:35;;;;;;;19.75;8.00;;;1.10;87.30;;;;;;4974294;28;20047;-81
2023/01/20 05:52:02;;;;;;;19.55;7.75;;;1.10;87.20;;;;;;4974082;28;20061;-81
2023/01/20 05:54:29;;;;;;;20.40;8.55;;;1.10;87.20;;;;;;4982243;28;20051;-80
2023/01/20 05:56:57;;;;;;;19.87;8.10;;;1.10;87.20;;;;;;4958543;28;20055;-80
2023/01/20 05:59:25;;;;;;;20.15;8.55;;;1.10;87.20;;;;;;4980399;28;20332;-81
2023/01/20 06:01:52;;;;;;;22.13;8.40;;;1.10;87.30;;;;;;4984641;28;20042;-80
2023/01/20 06:04:20;;;;;;;20.52;8.55;;;1.10;87.20;;;;;;4981556;28;20081;-80
2023/01/20 06:06:47;;;;;;;20.90;8.23;;;1.10;87.20;;;;;;4990689;28;20083;-81
2023/01/20 06:09:14;;;;;;;24.77;9.80;;;1.10;87.20;;;;;;4984878;28;20047;-81
2023/01/20 06:11:42;;;;;;;23.10;8.70;;;1.10;87.30;;;;;;4974695;28;21266;-80
2023/01/20 06:14:09;;;;;;;22.90;8.77;;;1.10;87.30;;;;;;4971446;28;20059;-82
2023/01/20 06:16:36;;;;;;;20.20;8.10;;;1.10;87.20;;;;;;4961653;28;20134;-80
2023/01/20 06:19:03;;;;;;;24.08;9.43;;;1.20;87.10;;;;;;4990449;28;20161;-81
2023/01/20 06:21:31;;;;;;;22.30;8.57;;;1.10;87.10;;;;;;4993645;28;20050;-82
2023/01/20 06:23:58;;;;;;;21.10;8.68;;;1.10;87.10;;;;;;4977708;28;20346;-81
2023/01/20 06:26:25;;;;;;;23.05;8.70;;;1.10;87.00;;;;;;4981596;28;20209;-81
2023/01/20 06:28:52;;;;;;;22.30;8.80;;;1.10;86.80;;;;;;4957395;28;20113;-81
2023/01/20 06:31:19;;;;;;;21.25;9.93;;;1.10;86.80;;;;;;4959693;28;20164;-80
2023/01/20 06:33:46;;;;;;;29.37;11.40;;;1.10;86.80;;;;;;4972698;28;20051;-81
2023/01/20 06:36:16;;;;;;;24.80;10.95;;;1.10;86.90;;;;;;4990126;28;20357;-81
2023/01/20 06:38:49;;;;;;;32.08;13.27;;;1.10;87.20;;;;;;4974096;28;20050;-81
2023/01/20 06:41:17;;;;;;;27.10;10.60;;;1.20;87.20;;;;;;4991732;28;20050;-80
2023/01/20 06:43:45;;;;;;;25.52;10.15;;;1.20;86.90;;;;;;4968019;28;20138;-80
2023/01/20 06:46:14;;;;;;;22.17;8.80;;;1.20;86.80;;;;;;4959602;28;20047;-80
2023/01/20 06:48:41;;;;;;;28.20;12.70;;;1.20;86.80;;;;;;4993334;28;20345;-80
2023/01/20 06:51:11;;;;;;;27.55;10.52;;;1.20;86.80;;;;;;4993219;28;20145;-81
2023/01/20 06:53:38;;;;;;;25.38;10.05;;;1.20;86.80;;;;;;4975992;28;20078;-81
2023/01/20 06:56:09;;;;;;;25.92;10.05;;;1.20;86.80;;;;;;4973464;28;20075;-81
2023/01/20 06:58:36;;;;;;;24.97;9.47;;;1.20;86.70;;;;;;4989624;28;20058;-81
2023/01/20 07:01:07;;;;;;;22.45;9.15;;;1.20;86.70;;;;;;4992135;28;20324;-81
2023/01/20 07:03:34;;;;;;;26.52;9.85;;;1.20;86.70;;;;;;4977055;28;20047;-81
2023/01/20 07:06:03;;;;;;;26.92;9.90;;;1.20;86.70;;;;;;4973546;28;20161;-81
2023/01/20 07:08:30;;;;;;;25.00;9.68;;;1.20;86.70;;;;;;4973742;28;20078;-81
2023/01/20 07:10:57;;;;;;;27.43;9.37;;;1.20;86.80;;;;;;4972882;28;20054;-81
2023/01/20 07:13:26;;;;;;;27.00;10.93;;;1.20;86.70;;;;;;4973090;28;20306;-80
2023/01/20 07:15:53;;;;;;;24.98;10.23;;;1.20;86.60;;;;;;4957017;28;20149;-81
2023/01/20 07:18:20;;;;;;;23.63;9.50;;;1.20;86.50;;;;;;4991018;28;20055;-80
2023/01/20 07:20:47;;;;;;;22.25;9.77;;;1.20;86.50;;;;;;4972892;28;20051;-80
2023/01/20 07:23:14;;;;;;;23.70;9.67;;;1.20;86.50;;;;;;4972928;28;20051;-81
2023/01/20 07:25:41;;;;;;;23.00;8.85;;;1.20;86.60;;;;;;4957052;28;20294;-81
2023/01/20 07:28:08;;;;;;;27.17;11.00;;;1.20;86.50;;;;;;4973880;28;20521;-80
2023/01/20 07:30:37;;;;;;;27.42;10.60;;;1.20;86.50;;;;;;4988975;28;20054;-80
2023/01/20 07:33:04;;;;;;;25.73;10.40;;;1.20;86.60;;;;;;4986637;28;20139;-80
2023/01/20 07:35:32;;;;;;;26.20;10.70;;;1.20;86.50;;;;;;4956699;28;20529;-80
2023/01/20 07:37:59;;;;;;;25.92;9.55;;;1.20;86.60;;;;;;4977149;28;20329;-80
2023/01/20 07:40:26;;;;;;;24.38;9.13;;;1.20;86.50;;;;;;4975783;28;20567;-80
2023/01/20 07:42:53;;;;;;;29.70;11.23;;;1.20;86.60;;;;;;4972441;28;20051;-80
2023/01/20 07:45:20;;;;;;;28.10;11.23;;;1.30;86.50;;;;;;4972162;28;20042;-80
2023/01/20 07:47:48;;;;;;;29.20;11.73;;;1.30;86.30;;;;;;4956608;28;20161;-80
2023/01/20 07:50:16;;;;;;;29.70;11.45;;;1.20;86.30;;;;;;4972463;28;20273;-80
2023/01/20 07:52:43;;;;;;;29.27;11.88;;;1.20;86.40;;;;;;4972714;28;20053;-81
2023/01/20 07:55:10;;;;;;;27.95;11.45;;;1.20;86.40;;;;;;4958975;28;20493;-81
2023/01/20 07:57:38;;;;;;;29.70;10.45;;;1.20;86.40;;;;;;4974666;28;20156;-81
2023/01/20 08:00:07;;;;;;;27.57;11.20;;;1.30;86.40;;;;;;4976175;28;20166;-80
2023/01/20 08:02:37;;;;;;;33.70;11.88;;;1.30;86.40;;;;;;4974184;28;20689;-81
2023/01/20 08:05:06;;;;;;;29.23;11.27;;;1.30;86.50;;;;;;4982267;28;20097;-80
2023/01/20 08:07:33;;;;;;;27.88;11.00;;;1.30;86.40;;;;;;4974769;28;20062;-81
2023/01/20 08:10:00;;;;;;;28.80;11.00;;;1.40;86.30;;;;;;4972542;28;20138;-80
2023/01/20 08:12:28;;;;;;;29.67;12.07;;;1.40;86.30;;;;;;4972242;28;20133;-80
2023/01/20 08:14:55;;;;;;;25.05;9.70;;;1.40;86.20;;;;;;4972731;28;20370;-80
2023/01/20 08:17:22;;;;;;;29.35;10.85;;;1.40;86.30;;;;;;5005284;28;20739;-86
2023/01/20 08:19:49;;;;;;;27.85;10.70;;;1.30;86.20;;;;;;4961550;28;20082;-80
2023/01/20 08:22:18;;;;;;;30.02;11.27;;;1.30;86.20;;;;;;4971782;28;20054;-81
2023/01/20 08:24:45;;;;;;;29.30;10.97;;;1.30;86.10;;;;;;4976121;28;20513;-80
2023/01/20 08:27:13;;;;;;;28.83;10.32;;;1.30;86.20;;;;;;4961537;28;20655;-81
2023/01/20 08:29:40;;;;;;;30.45;11.80;;;1.30;86.20;;;;;;4973747;28;20133;-81
2023/01/20 08:32:07;;;;;;;28.73;9.82;;;1.30;86.20;;;;;;4962134;28;20149;-82
2023/01/20 08:34:34;;;;;;;26.92;10.98;;;1.30;86.20;;;;;;4981655;28;20082;-81
2023/01/20 08:37:01;;;;;;;31.00;11.80;;;1.40;86.20;;;;;;4962495;28;20059;-81
2023/01/20 08:39:30;;;;;;;27.63;10.18;;;1.40;86.20;;;;;;4971026;28;20351;-81
2023/01/20 08:41:57;;;;;;;26.65;9.98;;;1.40;86.20;;;;;;4977824;28;20130;-81
2023/01/20 08:44:24;;;;;;;37.42;13.98;;;1.40;86.20;;;;;;4975393;28;20496;-79
2023/01/20 08:46:53;;;;;;;31.38;11.23;;;1.40;86.20;;;;;;4987406;28;20050;-80
2023/01/20 08:49:22;;;;;;;31.43;11.03;;;1.40;86.00;;;;;;4987385;28;20094;-82
2023/01/20 08:51:49;;;;;;;29.35;10.20;;;1.40;85.90;;;;;;4984967;28;20345;-80
2023/01/20 08:54:17;;;;;;;34.08;12.45;;;1.40;85.90;;;;;;4982767;28;20055;-81
2023/01/20 08:56:45;;;;;;;33.38;10.50;;;1.40;85.70;;;;;;4973102;28;20055;-81
2023/01/20 08:59:12;;;;;;;32.45;11.93;;;1.40;85.70;;;;;;4988452;28;20054;-82
2023/01/20 09:01:40;;;;;;;35.27;10.83;;;1.40;85.80;;;;;;4977016;28;20126;-81
2023/01/20 09:04:08;;;;;;;31.80;12.38;;;1.40;85.80;;;;;;4950762;28;20287;-81
2023/01/20 09:06:39;;;;;;;33.33;11.88;;;1.40;85.70;;;;;;4959666;28;20475;-81
2023/01/20 09:09:06;;;;;;;32.33;12.25;;;1.40;85.70;;;;;;4978137;28;20042;-80
2023/01/20 09:11:33;;;;;;;29.48;10.20;;;1.40;85.80;;;;;;4979289;28;20150;-81
2023/01/20 09:14:02;;;;;;;38.33;12.77;;;1.40;85.80;;;;;;4974599;28;20050;-81
2023/01/20 09:16:29;;;;;;;37.00;12.10;;;1.40;85.70;;;;;;4974513;28;20487;-81
2023/01/20 09:18:56;;;;;;;29.10;9.45;;;1.40;85.80;;;;;;4985895;28;20054;-82
2023/01/20 09:21:23;;;;;;;35.05;11.07;;;1.40;85.60;;;;;;4979417;28;20065;-81
2023/01/20 09:23:51;;;;;;;34.90;12.85;;;1.40;85.50;;;;;;4981457;28;20177;-83
2023/01/20 09:26:18;;;;;;;37.93;13.87;;;1.40;85.40;;;;;;4950726;28;20093;-82
2023/01/20 09:28:45;;;;;;;33.42;11.75;;;1.40;85.30;;;;;;4977109;28;21066;-83
2023/01/20 09:31:14;;;;;;;33.00;11.20;;;1.40;85.40;;;;;;4977217;28;20518;-83
2023/01/20 09:33:42;;;;;;;31.38;11.43;;;1.40;85.50;;;;;;4975145;28;20595;-83
2023/01/20 09:36:10;;;;;;;33.40;11.68;;;1.40;85.40;;;;;;4958861;28;20101;-81
2023/01/20 09:44:39;;;;;;;29.83;9.25;;;1.40;85.40;;;;;;4915632;29;20542;-83
2023/01/20 09:47:22;;;;;;;34.97;11.93;;;1.40;85.40;;;;;;4963813;28;20066;-84
2023/01/20 09:53:03;;;;;;;29.60;11.23;;;1.40;85.40;;;;;;4971405;28;20059;-80
2023/01/20 09:55:37;;;;;;;29.33;10.68;;;1.40;85.50;;;;;;4980675;28;20301;-81
2023/01/20 09:58:11;;;;;;;31.63;10.93;;;1.40;85.50;;;;;;4974775;28;20122;-83
2023/01/20 10:01:45;;;;;;;33.28;10.70;;;1.40;85.50;;;;;;4974073;28;20811;-81
2023/01/20 10:04:18;;;;;;;30.77;10.35;;;1.40;85.60;;;;;;4968895;28;20134;-82
2023/01/20 10:06:49;;;;;;;23.93;8.13;;;1.40;85.50;;;;;;4981445;28;20166;-81
2023/01/20 10:09:22;;;;;;;23.08;7.93;;;1.40;85.50;;;;;;4985721;28;20285;-81
2023/01/20 10:11:54;;;;;;;26.42;9.25;;;1.40;85.40;;;;;;4957214;28;20636;-84
2023/01/20 10:14:25;;;;;;;28.00;9.68;;;1.40;85.30;;;;;;4979937;28;20152;-82
2023/01/20 10:16:57;;;;;;;30.75;9.95;;;1.50;85.30;;;;;;4976887;28;20051;-84
2023/01/20 10:19:33;;;;;;;28.70;9.63;;;1.40;85.30;;;;;;4956868;28;20138;-85
2023/01/20 10:22:08;;;;;;;29.00;9.82;;;1.40;85.40;;;;;;4982248;28;20314;-85
2023/01/20 10:24:41;;;;;;;30.75;10.85;;;1.40;85.40;;;;;;4965814;28;20117;-83
2023/01/20 10:27:08;;;;;;;32.63;11.45;;;1.40;85.50;;;;;;4977591;28;20062;-85
2023/01/20 10:29:37;;;;;;;31.77;10.70;;;1.50;85.60;;;;;;4974318;28;20486;-83
2023/01/20 10:32:08;;;;;;;32.53;10.17;;;1.50;85.70;;;;;;4973762;28;20114;-83
2023/01/20 10:35:25;;;;;;;30.02;10.80;;;1.50;85.70;;;;;;4954410;28;20408;-85
2023/01/20 10:37:57;;;;;;;27.67;9.93;;;1.50;85.70;;;;;;4973592;28;20069;-83
2023/01/20 10:40:34;;;;;;;32.03;10.65;;;1.50;85.60;;;;;;4973372;28;20074;-82
2023/01/20 10:43:10;;;;;;;30.48;10.07;;;1.60;85.50;;;;;;4972464;28;20054;-82
2023/01/20 10:45:49;;;;;;;32.40;9.77;;;1.50;85.50;;;;;;4961518;28;20066;-81
2023/01/20 10:48:30;;;;;;;28.63;10.35;;;1.60;85.60;;;;;;4972773;28;21196;-85
2023/01/20 10:51:04;;;;;;;28.30;10.25;;;1.60;85.60;;;;;;4956493;28;20129;-83
2023/01/20 10:53:50;;;;;;;30.45;10.80;;;1.60;85.50;;;;;;4973087;28;20074;-80
2023/01/20 10:56:38;;;;;;;29.92;10.07;;;1.60;85.50;;;;;;4956304;28;20106;-83
2023/01/20 10:59:13;;;;;;;28.23;10.00;;;1.60;85.60;;;;;;4969509;28;20138;-83
2023/01/20 11:01:41;;;;;;;31.35;11.05;;;1.60;85.60;;;;;;4959383;28;20823;-86
2023/01/20 11:04:17;;;;;;;28.90;9.52;;;1.60;85.70;;;;;;4978505;28;20054;-83
2023/01/20 11:07:15;;;;;;;26.40;8.88;;;1.60;85.60;;;;;;4960737;28;20048;-86
2023/01/20 11:09:44;;;;;;;28.45;10.07;;;1.60;85.60;;;;;;4953277;28;20133;-84
2023/01/20 11:12:15;;;;;;;24.93;9.50;;;1.60;85.70;;;;;;4972604;28;20568;-86
2023/01/20 11:14:43;;;;;;;26.02;9.00;;;1.60;85.70;;;;;;4957525;28;20342;-85
2023/01/20 11:17:15;;;;;;;28.40;9.70;;;1.60;85.70;;;;;;4972880;28;20571;-85
2023/01/20 11:19:47;;;;;;;26.27;9.35;;;1.60;85.70;;;;;;4956274;28;20129;-82
2023/01/20 11:22:19;;;;;;;26.58;8.88;;;1.70;85.70;;;;;;4969121;28;20158;-84
2023/01/20 11:24:48;;;;;;;23.37;8.43;;;1.70;85.70;;;;;;4953067;28;20066;-83
2023/01/20 11:27:18;;;;;;;26.27;9.32;;;1.70;85.70;;;;;;4972451;28;20308;-83
2023/01/20 11:29:50;;;;;;;22.30;6.05;;;1.70;85.60;;;;;;4959410;28;20133;-82
2023/01/20 11:32:29;;;;;;;25.33;9.30;;;1.80;85.60;;;;;;4972107;28;20134;-81
2023/01/20 11:34:57;;;;;;;25.27;9.30;;;1.80;85.40;;;;;;4972894;28;20057;-81
2023/01/20 11:37:25;;;;;;;25.83;9.00;;;1.70;85.40;;;;;;4992192;28;20129;-82
2023/01/20 11:40:01;;;;;;;26.40;9.65;;;1.70;85.40;;;;;;4956308;28;20338;-80
2023/01/20 11:42:29;;;;;;;24.63;9.07;;;1.70;85.30;;;;;;4968391;28;20055;-80
2023/01/20 11:44:58;;;;;;;29.23;9.45;;;1.70;85.30;;;;;;4967472;28;20091;-81
2023/01/20 11:47:28;;;;;;;23.83;8.10;;;1.70;85.30;;;;;;4955955;28;20059;-81
2023/01/20 11:50:26;;;;;;;27.33;9.70;;;1.80;85.40;;;;;;4971594;28;20129;-81
2023/01/20 11:52:52;;;;;;;26.40;9.65;;;1.80;85.40;;;;;;4943977;28;20358;-82
2023/01/20 11:55:23;;;;;;;27.88;9.27;;;1.80;85.40;;;;;;4990392;28;20133;-81
2023/01/20 11:57:53;;;;;;;30.73;10.63;;;1.80;85.40;;;;;;4983180;28;20050;-81
2023/01/20 12:00:33;;;;;;;30.50;11.02;;;1.80;85.40;;;;;;4971423;28;20145;-81
2023/01/20 12:03:03;;;;;;;30.80;10.80;;;1.80;85.30;;;;;;4976217;28;20075;-82
2023/01/20 12:05:39;;;;;;;28.48;9.45;;;1.80;85.30;;;;;;4961804;28;20314;-82
2023/01/20 12:08:16;;;;;;;26.77;10.30;;;1.80;85.30;;;;;;4973334;28;20087;-85
2023/01/20 12:10:48;;;;;;;27.63;10.10;;;1.80;85.30;;;;;;4963316;28;20861;-83
2023/01/20 12:13:20;;;;;;;28.98;9.07;;;1.80;85.40;;;;;;4965899;28;20055;-82
2023/01/20 12:15:53;;;;;;;28.63;10.40;;;1.80;85.30;;;;;;4965592;28;20146;-84
2023/01/20 12:18:32;;;;;;;25.75;9.18;;;1.80;85.30;;;;;;4971027;28;20620;-84
2023/01/20 12:21:06;;;;;;;27.60;10.20;;;1.80;85.10;;;;;;4966167;28;20150;-84
2023/01/20 12:23:44;;;;;;;30.05;10.85;;;1.80;85.10;;;;;;4953141;28;20051;-85
2023/01/20 12:26:15;;;;;;;25.85;9.30;;;1.80;85.20;;;;;;4969385;28;20102;-84
2023/01/20 12:28:54;;;;;;;26.50;9.30;;;1.80;85.20;;;;;;4956834;28;20152;-84
2023/01/20 12:31:23;;;;;;;27.83;9.30;;;1.80;85.10;;;;;;4964822;28;20298;-85
2023/01/20 12:33:55;;;;;;;27.45;10.45;;;1.80;85.10;;;;;;4972412;28;20516;-84
2023/01/20 12:36:33;;;;;;;27.08;9.30;;;1.80;85.10;;;;;;4975649;28;20606;-85
2023/01/20 12:39:26;;;;;;;24.05;9.40;;;1.80;85.10;;;;;;4974753;28;20113;-87
2023/01/20 12:42:24;;;;;;;27.27;9.53;;;1.80;85.00;;;;;;4980660;28;20058;-86
2023/01/20 12:44:57;;;;;;;27.48;9.88;;;1.80;85.10;;;;;;5004219;28;20402;-85
2023/01/20 12:47:41;;;;;;;23.77;9.50;;;1.90;85.10;;;;;;4974074;28;20057;-84
2023/01/20 12:50:32;;;;;;;25.92;8.82;;;1.90;84.90;;;;;;4955483;28;20094;-84
2023/01/20 12:53:12;;;;;;;23.85;8.57;;;1.90;84.80;;;;;;4979902;28;20126;-87
2023/01/20 12:55:51;;;;;;;24.43;8.87;;;1.90;84.60;;;;;;4990186;28;20953;-88
2023/01/20 12:58:38;;;;;;;25.08;9.48;;;1.90;84.50;;;;;;4990150;28;20306;-86
2023/01/20 13:01:51;;;;;;;26.50;9.75;;;1.90;84.60;;;;;;4981406;28;20503;-88
2023/01/20 13:05:02;;;;;;;24.70;9.00;;;1.80;84.60;;;;;;4947163;28;20149;-90
2023/01/20 13:08:01;;;;;;;26.92;9.18;;;1.80;84.70;;;;;;4968785;28;20054;-90
2023/01/20 13:10:48;;;;;;;27.33;9.50;;;1.80;84.60;;;;;;4961482;28;20058;-88
2023/01/20 13:13:30;;;;;;;26.92;9.60;;;1.80;84.60;;;;;;4966809;28;20855;-89
2023/01/20 13:16:02;;;;;;;25.15;8.98;;;1.90;84.70;;;;;;4977006;28;20051;-88